Buckeye, WV (24924)

2:43 PM EST on January 28, 2015 (GMT -0500)
RAWS MARLINTON WV US | Change Station
CLOSE
Current Station
Personal Weather Station
Location: Marlinton, WV
Elevation: 3082 ft
Nearby Weather Stations

Elev 3082 ft 38.22 °N, 80.04 °W | Updated 42 minutes ago

Clear
Clear
30 °F
Feels Like 25 °F
N
5
Wind Variable Wind from NNW
Gusts 10.0 mph

Today
High -- | Low -- °F
--% Chance of Precip.
Yesterday
High -- | Low -- °F
Precip. -- in
7:28 AM 5:38 PM
Waxing Gibbous, 67% visible
Pressure 30.07 in
Visibility 10.0 miles
Clouds Clear
Windchill 25 °F
Dew Point 10 °F
Humidity 42%
Rainfall 0.04 in
Snow Depth Not available.
UV 3 out of 12
Pollen .10 out of 12
Air Quality Not available.
Flu Activity Not available.
METAR KHSP 281935Z AUTO 32007KT 10SM CLR M02/M14 A3007 RMK AO2 T10171140

More Conditions Fewer Conditions

Pressure 30.07 in
Visibility 10.0 miles
Clouds Clear
Windchill 25 °F
Dew Point 10 °F
Humidity 42%
Rainfall 0.04 in
Snow Depth Not available.
UV 3 out of 12
Pollen .10 out of 12
Air Quality Not available.
Flu Activity Not available.
METAR KHSP 281935Z AUTO 32007KT 10SM CLR M02/M14 A3007 RMK AO2 T10171140

More Conditions Fewer Conditions

10-Day Weather Forecast

Almanac

Astronomy

Jan. 28, 2015 Rise Set
Actual Time
Civil Twilight
Nautical Twilight
Astronomical Twilight
Moon
Length of Visible Light
Length of Day
Tomorrow will be .
, % of the Moon is Illuminated

Today's Extremes

State Highs State Lows

Community

WunderPhotos

Upload Photos

1,791,250 photos uploaded!

WunderBlogs® & News

Nearby

Air Quality

  Air Quality AQ Index Pollutant
Not available.

Snow Depth

Station Depth Elevation

Earthquake Activity

City Distance Mag. Time & Date
Minimum magnitude displayed is 2.5.

Coastal Water Temperatures

Place Temperature

Nearby Weather Stations